sensor_id;sensor_type;location;lat;lon;timestamp;P1;durP1;ratioP1;P2;durP2;ratioP2
20910;SDS011;10615;42.702;23.314;2023-03-14T00:01:07;11.07;;;7.15;;
20910;SDS011;10615;42.702;23.314;2023-03-14T00:02:11;11.65;;;7.25;;
20910;SDS011;10615;42.702;23.314;2023-03-14T00:03:12;11.45;;;7.18;;
20910;SDS011;10615;42.702;23.314;2023-03-14T00:04:12;9.75;;;7.10;;
20910;SDS011;10615;42.702;23.314;2023-03-14T00:05:13;12.13;;;6.95;;
20910;SDS011;10615;42.702;23.314;2023-03-14T00:06:14;9.52;;;6.50;;
20910;SDS011;10615;42.702;23.314;2023-03-14T00:07:15;9.23;;;6.50;;
20910;SDS011;10615;42.702;23.314;2023-03-14T00:08:16;12.13;;;6.72;;
20910;SDS011;10615;42.702;23.314;2023-03-14T00:09:17;9.23;;;6.72;;
20910;SDS011;10615;42.702;23.314;2023-03-14T00:10:18;9.07;;;6.32;;
20910;SDS011;10615;42.702;23.314;2023-03-14T00:11:20;9.18;;;6.28;;
20910;SDS011;10615;42.702;23.314;2023-03-14T00:12:21;10.25;;;6.85;;
20910;SDS011;10615;42.702;23.314;2023-03-14T00:13:22;8.90;;;6.50;;
20910;SDS011;10615;42.702;23.314;2023-03-14T00:14:23;8.82;;;6.45;;
20910;SDS011;10615;42.702;23.314;2023-03-14T00:15:23;8.63;;;6.43;;
20910;SDS011;10615;42.702;23.314;2023-03-14T00:16:24;8.30;;;6.22;;
20910;SDS011;10615;42.702;23.314;2023-03-14T00:17:26;8.68;;;6.10;;
20910;SDS011;10615;42.702;23.314;2023-03-14T00:18:27;9.25;;;6.00;;
20910;SDS011;10615;42.702;23.314;2023-03-14T00:19:27;12.07;;;6.10;;
20910;SDS011;10615;42.702;23.314;2023-03-14T00:20:28;10.80;;;6.30;;
20910;SDS011;10615;42.702;23.314;2023-03-14T00:21:29;8.45;;;6.15;;
20910;SDS011;10615;42.702;23.314;2023-03-14T00:22:30;10.13;;;6.45;;
20910;SDS011;10615;42.702;23.314;2023-03-14T00:23:32;11.57;;;6.28;;
20910;SDS011;10615;42.702;23.314;2023-03-14T00:24:34;10.15;;;7.22;;
20910;SDS011;10615;42.702;23.314;2023-03-14T00:25:34;8.63;;;6.20;;
20910;SDS011;10615;42.702;23.314;2023-03-14T00:26:35;9.77;;;6.40;;
20910;SDS011;10615;42.702;23.314;2023-03-14T00:27:36;10.18;;;5.97;;
20910;SDS011;10615;42.702;23.314;2023-03-14T00:28:37;9.48;;;6.05;;
20910;SDS011;10615;42.702;23.314;2023-03-14T00:29:38;9.35;;;6.07;;
20910;SDS011;10615;42.702;23.314;2023-03-14T00:30:39;8.55;;;6.10;;
20910;SDS011;10615;42.702;23.314;2023-03-14T00:31:39;8.63;;;5.68;;
20910;SDS011;10615;42.702;23.314;2023-03-14T00:32:40;7.60;;;5.97;;
20910;SDS011;10615;42.702;23.314;2023-03-14T00:33:41;9.35;;;6.13;;
20910;SDS011;10615;42.702;23.314;2023-03-14T00:34:43;10.15;;;6.38;;
20910;SDS011;10615;42.702;23.314;2023-03-14T00:35:43;9.70;;;6.35;;
20910;SDS011;10615;42.702;23.314;2023-03-14T00:36:56;12.57;;;5.85;;
20910;SDS011;10615;42.702;23.314;2023-03-14T00:37:57;10.13;;;6.20;;
20910;SDS011;10615;42.702;23.314;2023-03-14T00:38:57;8.70;;;6.00;;
20910;SDS011;10615;42.702;23.314;2023-03-14T00:39:58;10.80;;;6.50;;
20910;SDS011;10615;42.702;23.314;2023-03-14T00:40:59;9.65;;;6.40;;
20910;SDS011;10615;42.702;23.314;2023-03-14T00:42:02;9.57;;;5.93;;
20910;SDS011;10615;42.702;23.314;2023-03-14T00:43:03;7.80;;;6.13;;
20910;SDS011;10615;42.702;23.314;2023-03-14T00:44:04;8.73;;;6.30;;
20910;SDS011;10615;42.702;23.314;2023-03-14T00:45:04;9.65;;;6.22;;
20910;SDS011;10615;42.702;23.314;2023-03-14T00:46:07;11.68;;;6.50;;
20910;SDS011;10615;42.702;23.314;2023-03-14T00:47:08;10.48;;;6.43;;
20910;SDS011;10615;42.702;23.314;2023-03-14T00:48:09;9.35;;;6.03;;
20910;SDS011;10615;42.702;23.314;2023-03-14T00:49:10;7.97;;;5.88;;
20910;SDS011;10615;42.702;23.314;2023-03-14T00:50:11;8.88;;;6.15;;
20910;SDS011;10615;42.702;23.314;2023-03-14T00:51:12;8.63;;;5.63;;
20910;SDS011;10615;42.702;23.314;2023-03-14T00:52:14;12.55;;;6.55;;
20910;SDS011;10615;42.702;23.314;2023-03-14T00:53:15;10.13;;;6.10;;
20910;SDS011;10615;42.702;23.314;2023-03-14T00:54:17;11.13;;;5.90;;
20910;SDS011;10615;42.702;23.314;2023-03-14T00:55:18;7.75;;;6.05;;
20910;SDS011;10615;42.702;23.314;2023-03-14T00:56:19;7.63;;;5.63;;
20910;SDS011;10615;42.702;23.314;2023-03-14T00:57:20;8.18;;;5.57;;
20910;SDS011;10615;42.702;23.314;2023-03-14T00:58:20;11.95;;;5.78;;
20910;SDS011;10615;42.702;23.314;2023-03-14T00:59:21;8.70;;;5.22;;
20910;SDS011;10615;42.702;23.314;2023-03-14T01:00:22;7.90;;;5.45;;
20910;SDS011;10615;42.702;23.314;2023-03-14T01:01:23;7.20;;;5.22;;
20910;SDS011;10615;42.702;23.314;2023-03-14T01:02:24;9.77;;;6.00;;
20910;SDS011;10615;42.702;23.314;2023-03-14T01:03:25;7.30;;;5.63;;
20910;SDS011;10615;42.702;23.314;2023-03-14T01:04:26;9.10;;;5.90;;
20910;SDS011;10615;42.702;23.314;2023-03-14T01:05:26;7.57;;;5.20;;
20910;SDS011;10615;42.702;23.314;2023-03-14T01:06:28;9.13;;;5.07;;
20910;SDS011;10615;42.702;23.314;2023-03-14T01:07:29;8.02;;;5.57;;
20910;SDS011;10615;42.702;23.314;2023-03-14T01:08:30;7.45;;;5.40;;
20910;SDS011;10615;42.702;23.314;2023-03-14T01:09:30;7.85;;;5.03;;
20910;SDS011;10615;42.702;23.314;2023-03-14T01:10:31;8.70;;;4.95;;
20910;SDS011;10615;42.702;23.314;2023-03-14T01:11:33;6.85;;;4.95;;
20910;SDS011;10615;42.702;23.314;2023-03-14T01:12:34;6.53;;;5.07;;
20910;SDS011;10615;42.702;23.314;2023-03-14T01:13:35;7.75;;;5.20;;
20910;SDS011;10615;42.702;23.314;2023-03-14T01:14:37;6.80;;;4.65;;
20910;SDS011;10615;42.702;23.314;2023-03-14T01:15:37;6.60;;;4.80;;
20910;SDS011;10615;42.702;23.314;2023-03-14T01:16:38;6.78;;;5.07;;
20910;SDS011;10615;42.702;23.314;2023-03-14T01:17:38;6.57;;;5.07;;
20910;SDS011;10615;42.702;23.314;2023-03-14T01:18:41;6.25;;;4.75;;
20910;SDS011;10615;42.702;23.314;2023-03-14T01:19:46;8.05;;;5.35;;
20910;SDS011;10615;42.702;23.314;2023-03-14T01:20:46;6.40;;;5.03;;
20910;SDS011;10615;42.702;23.314;2023-03-14T01:21:47;7.70;;;5.15;;
20910;SDS011;10615;42.702;23.314;2023-03-14T01:22:48;6.65;;;5.05;;
20910;SDS011;10615;42.702;23.314;2023-03-14T01:23:49;7.25;;;5.03;;
20910;SDS011;10615;42.702;23.314;2023-03-14T01:24:50;7.40;;;4.72;;
20910;SDS011;10615;42.702;23.314;2023-03-14T01:25:51;8.95;;;4.90;;
20910;SDS011;10615;42.702;23.314;2023-03-14T01:26:51;8.43;;;5.13;;
20910;SDS011;10615;42.702;23.314;2023-03-14T01:27:52;6.55;;;5.28;;
20910;SDS011;10615;42.702;23.314;2023-03-14T01:28:53;8.27;;;5.22;;
20910;SDS011;10615;42.702;23.314;2023-03-14T01:29:54;8.02;;;5.40;;
20910;SDS011;10615;42.702;23.314;2023-03-14T01:30:55;6.70;;;5.20;;
20910;SDS011;10615;42.702;23.314;2023-03-14T01:31:56;7.55;;;5.45;;
20910;SDS011;10615;42.702;23.314;2023-03-14T01:32:56;7.68;;;4.97;;
20910;SDS011;10615;42.702;23.314;2023-03-14T01:33:57;8.02;;;5.18;;
20910;SDS011;10615;42.702;23.314;2023-03-14T01:34:58;6.43;;;5.03;;
20910;SDS011;10615;42.702;23.314;2023-03-14T01:35:58;8.65;;;5.00;;
20910;SDS011;10615;42.702;23.314;2023-03-14T01:36:59;6.93;;;5.13;;
20910;SDS011;10615;42.702;23.314;2023-03-14T01:38:00;7.20;;;5.20;;
20910;SDS011;10615;42.702;23.314;2023-03-14T01:39:00;6.20;;;5.00;;
20910;SDS011;10615;42.702;23.314;2023-03-14T01:40:01;7.82;;;5.25;;
20910;SDS011;10615;42.702;23.314;2023-03-14T01:41:03;8.93;;;5.63;;
20910;SDS011;10615;42.702;23.314;2023-03-14T01:42:04;8.70;;;5.68;;
20910;SDS011;10615;42.702;23.314;2023-03-14T01:43:11;12.68;;;6.00;;
20910;SDS011;10615;42.702;23.314;2023-03-14T01:44:17;10.57;;;6.00;;
20910;SDS011;10615;42.702;23.314;2023-03-14T01:47:06;9.70;;;5.88;;
20910;SDS011;10615;42.702;23.314;2023-03-14T01:48:06;7.43;;;5.75;;
20910;SDS011;10615;42.702;23.314;2023-03-14T01:50:19;9.43;;;5.82;;
20910;SDS011;10615;42.702;23.314;2023-03-14T01:52:54;11.55;;;5.93;;
20910;SDS011;10615;42.702;23.314;2023-03-14T01:53:59;8.98;;;6.03;;
20910;SDS011;10615;42.702;23.314;2023-03-14T01:55:26;10.60;;;6.50;;
20910;SDS011;10615;42.702;23.314;2023-03-14T01:56:26;13.55;;;7.03;;
20910;SDS011;10615;42.702;23.314;2023-03-14T01:57:28;12.27;;;8.02;;
20910;SDS011;10615;42.702;23.314;2023-03-14T01:58:32;13.88;;;8.80;;
20910;SDS011;10615;42.702;23.314;2023-03-14T01:59:37;15.68;;;9.90;;
20910;SDS011;10615;42.702;23.314;2023-03-14T02:00:40;23.00;;;13.60;;
20910;SDS011;10615;42.702;23.314;2023-03-14T02:01:41;27.05;;;14.70;;
20910;SDS011;10615;42.702;23.314;2023-03-14T02:02:48;20.40;;;11.95;;
20910;SDS011;10615;42.702;23.314;2023-03-14T02:03:55;21.98;;;11.77;;
20910;SDS011;10615;42.702;23.314;2023-03-14T02:04:58;16.20;;;11.20;;
20910;SDS011;10615;42.702;23.314;2023-03-14T02:05:59;18.00;;;10.82;;
20910;SDS011;10615;42.702;23.314;2023-03-14T02:07:09;19.33;;;11.30;;
20910;SDS011;10615;42.702;23.314;2023-03-14T02:08:18;17.70;;;11.38;;
20910;SDS011;10615;42.702;23.314;2023-03-14T02:09:21;18.52;;;11.68;;
20910;SDS011;10615;42.702;23.314;2023-03-14T02:10:23;16.98;;;11.73;;
20910;SDS011;10615;42.702;23.314;2023-03-14T02:11:28;20.17;;;12.32;;
20910;SDS011;10615;42.702;23.314;2023-03-14T02:12:30;18.88;;;12.68;;
20910;SDS011;10615;42.702;23.314;2023-03-14T02:13:31;19.02;;;12.63;;
20910;SDS011;10615;42.702;23.314;2023-03-14T02:14:33;18.13;;;12.73;;
20910;SDS011;10615;42.702;23.314;2023-03-14T02:15:36;21.50;;;12.63;;
20910;SDS011;10615;42.702;23.314;2023-03-14T02:16:37;17.73;;;12.18;;
20910;SDS011;10615;42.702;23.314;2023-03-14T02:17:38;18.52;;;12.48;;
20910;SDS011;10615;42.702;23.314;2023-03-14T02:18:42;24.65;;;14.18;;
20910;SDS011;10615;42.702;23.314;2023-03-14T02:21:14;21.00;;;12.68;;
20910;SDS011;10615;42.702;23.314;2023-03-14T02:22:23;20.10;;;13.00;;
20910;SDS011;10615;42.702;23.314;2023-03-14T02:23:27;21.25;;;13.18;;
20910;SDS011;10615;42.702;23.314;2023-03-14T02:27:34;18.95;;;12.52;;
20910;SDS011;10615;42.702;23.314;2023-03-14T02:28:35;19.92;;;12.90;;
20910;SDS011;10615;42.702;23.314;2023-03-14T02:29:37;18.77;;;12.68;;
20910;SDS011;10615;42.702;23.314;2023-03-14T02:30:45;19.95;;;12.60;;
20910;SDS011;10615;42.702;23.314;2023-03-14T02:31:46;20.30;;;13.10;;
20910;SDS011;10615;42.702;23.314;2023-03-14T02:32:47;21.48;;;13.50;;
20910;SDS011;10615;42.702;23.314;2023-03-14T02:33:52;20.92;;;13.55;;
20910;SDS011;10615;42.702;23.314;2023-03-14T02:34:55;21.90;;;12.80;;
20910;SDS011;10615;42.702;23.314;2023-03-14T02:36:01;22.88;;;13.40;;
20910;SDS011;10615;42.702;23.314;2023-03-14T02:37:04;21.60;;;13.77;;
20910;SDS011;10615;42.702;23.314;2023-03-14T02:38:17;17.67;;;13.05;;
20910;SDS011;10615;42.702;23.314;2023-03-14T02:39:29;21.65;;;13.20;;
20910;SDS011;10615;42.702;23.314;2023-03-14T02:40:43;20.13;;;13.40;;
20910;SDS011;10615;42.702;23.314;2023-03-14T02:41:44;20.38;;;13.30;;
20910;SDS011;10615;42.702;23.314;2023-03-14T02:42:46;20.38;;;13.27;;
20910;SDS011;10615;42.702;23.314;2023-03-14T02:43:46;24.27;;;13.82;;
20910;SDS011;10615;42.702;23.314;2023-03-14T02:44:51;21.98;;;13.55;;
20910;SDS011;10615;42.702;23.314;2023-03-14T02:46:01;22.20;;;13.23;;
20910;SDS011;10615;42.702;23.314;2023-03-14T02:47:04;20.10;;;13.38;;
20910;SDS011;10615;42.702;23.314;2023-03-14T02:48:06;20.65;;;12.70;;
20910;SDS011;10615;42.702;23.314;2023-03-14T02:49:12;20.45;;;13.10;;
20910;SDS011;10615;42.702;23.314;2023-03-14T02:50:19;19.55;;;13.80;;
20910;SDS011;10615;42.702;23.314;2023-03-14T02:51:22;20.02;;;13.45;;
20910;SDS011;10615;42.702;23.314;2023-03-14T02:52:25;21.60;;;13.00;;
20910;SDS011;10615;42.702;23.314;2023-03-14T02:53:27;25.05;;;14.40;;
20910;SDS011;10615;42.702;23.314;2023-03-14T02:54:31;19.80;;;13.30;;
20910;SDS011;10615;42.702;23.314;2023-03-14T02:55:32;21.23;;;13.63;;
20910;SDS011;10615;42.702;23.314;2023-03-14T02:56:32;20.77;;;13.25;;
20910;SDS011;10615;42.702;23.314;2023-03-14T02:57:33;18.90;;;13.10;;
20910;SDS011;10615;42.702;23.314;2023-03-14T02:58:34;21.08;;;13.45;;
20910;SDS011;10615;42.702;23.314;2023-03-14T02:59:35;20.83;;;13.50;;
20910;SDS011;10615;42.702;23.314;2023-03-14T03:00:35;21.17;;;13.52;;
20910;SDS011;10615;42.702;23.314;2023-03-14T03:01:36;21.73;;;13.88;;
20910;SDS011;10615;42.702;23.314;2023-03-14T03:02:36;18.27;;;13.15;;
20910;SDS011;10615;42.702;23.314;2023-03-14T03:03:37;26.25;;;14.50;;
20910;SDS011;10615;42.702;23.314;2023-03-14T03:04:38;21.73;;;13.88;;
20910;SDS011;10615;42.702;23.314;2023-03-14T03:05:38;24.50;;;14.25;;
20910;SDS011;10615;42.702;23.314;2023-03-14T03:06:39;20.88;;;13.40;;
20910;SDS011;10615;42.702;23.314;2023-03-14T03:07:39;22.60;;;13.70;;
20910;SDS011;10615;42.702;23.314;2023-03-14T03:08:40;22.92;;;15.07;;
20910;SDS011;10615;42.702;23.314;2023-03-14T03:09:41;23.00;;;14.05;;
20910;SDS011;10615;42.702;23.314;2023-03-14T03:10:41;21.98;;;14.68;;
20910;SDS011;10615;42.702;23.314;2023-03-14T03:11:42;25.88;;;15.57;;
20910;SDS011;10615;42.702;23.314;2023-03-14T03:12:43;24.42;;;15.75;;
20910;SDS011;10615;42.702;23.314;2023-03-14T03:13:44;23.83;;;16.27;;
20910;SDS011;10615;42.702;23.314;2023-03-14T03:14:44;33.08;;;16.45;;
20910;SDS011;10615;42.702;23.314;2023-03-14T03:15:45;29.17;;;17.70;;
20910;SDS011;10615;42.702;23.314;2023-03-14T03:16:46;27.15;;;16.75;;
20910;SDS011;10615;42.702;23.314;2023-03-14T03:17:47;30.63;;;18.48;;
20910;SDS011;10615;42.702;23.314;2023-03-14T03:18:47;29.00;;;18.05;;
20910;SDS011;10615;42.702;23.314;2023-03-14T03:19:48;25.85;;;17.30;;
20910;SDS011;10615;42.702;23.314;2023-03-14T03:20:48;27.38;;;17.90;;
20910;SDS011;10615;42.702;23.314;2023-03-14T03:21:49;30.70;;;17.80;;
20910;SDS011;10615;42.702;23.314;2023-03-14T03:22:50;27.88;;;17.88;;
20910;SDS011;10615;42.702;23.314;2023-03-14T03:23:50;26.02;;;17.90;;
20910;SDS011;10615;42.702;23.314;2023-03-14T03:24:51;29.05;;;18.65;;
20910;SDS011;10615;42.702;23.314;2023-03-14T03:25:52;26.70;;;17.17;;
20910;SDS011;10615;42.702;23.314;2023-03-14T03:26:52;29.83;;;18.10;;
20910;SDS011;10615;42.702;23.314;2023-03-14T03:27:53;26.05;;;17.27;;
20910;SDS011;10615;42.702;23.314;2023-03-14T03:28:54;30.52;;;17.80;;
20910;SDS011;10615;42.702;23.314;2023-03-14T03:29:55;28.52;;;18.67;;
20910;SDS011;10615;42.702;23.314;2023-03-14T03:30:55;26.30;;;17.42;;
20910;SDS011;10615;42.702;23.314;2023-03-14T03:31:56;24.45;;;17.63;;
20910;SDS011;10615;42.702;23.314;2023-03-14T03:32:57;29.30;;;17.40;;
20910;SDS011;10615;42.702;23.314;2023-03-14T03:33:57;25.27;;;16.83;;
20910;SDS011;10615;42.702;23.314;2023-03-14T03:34:58;26.67;;;17.92;;
20910;SDS011;10615;42.702;23.314;2023-03-14T03:35:59;28.73;;;18.25;;
20910;SDS011;10615;42.702;23.314;2023-03-14T03:36:59;27.23;;;17.63;;
20910;SDS011;10615;42.702;23.314;2023-03-14T03:38:00;24.80;;;16.98;;
20910;SDS011;10615;42.702;23.314;2023-03-14T03:39:01;26.35;;;17.45;;
20910;SDS011;10615;42.702;23.314;2023-03-14T03:40:02;29.10;;;17.58;;
20910;SDS011;10615;42.702;23.314;2023-03-14T03:41:06;23.40;;;16.45;;
20910;SDS011;10615;42.702;23.314;2023-03-14T03:42:07;25.25;;;17.33;;
20910;SDS011;10615;42.702;23.314;2023-03-14T03:43:08;25.90;;;17.30;;
20910;SDS011;10615;42.702;23.314;2023-03-14T03:44:09;27.60;;;17.30;;
20910;SDS011;10615;42.702;23.314;2023-03-14T03:45:09;27.50;;;17.10;;
20910;SDS011;10615;42.702;23.314;2023-03-14T03:46:10;28.55;;;17.33;;
20910;SDS011;10615;42.702;23.314;2023-03-14T03:47:11;30.90;;;17.00;;
20910;SDS011;10615;42.702;23.314;2023-03-14T03:48:11;27.92;;;16.95;;
20910;SDS011;10615;42.702;23.314;2023-03-14T03:49:12;28.65;;;17.70;;
20910;SDS011;10615;42.702;23.314;2023-03-14T03:50:13;27.88;;;16.48;;
20910;SDS011;10615;42.702;23.314;2023-03-14T03:51:14;25.60;;;17.30;;
20910;SDS011;10615;42.702;23.314;2023-03-14T03:52:16;25.02;;;16.15;;
20910;SDS011;10615;42.702;23.314;2023-03-14T03:53:17;27.88;;;17.05;;
20910;SDS011;10615;42.702;23.314;2023-03-14T03:54:17;27.05;;;16.83;;
20910;SDS011;10615;42.702;23.314;2023-03-14T03:55:18;25.15;;;16.77;;
20910;SDS011;10615;42.702;23.314;2023-03-14T03:56:18;24.55;;;17.50;;
20910;SDS011;10615;42.702;23.314;2023-03-14T03:57:19;22.67;;;16.08;;
20910;SDS011;10615;42.702;23.314;2023-03-14T03:58:20;27.58;;;17.48;;
20910;SDS011;10615;42.702;23.314;2023-03-14T03:59:21;24.45;;;17.08;;
20910;SDS011;10615;42.702;23.314;2023-03-14T04:00:21;29.13;;;17.25;;
20910;SDS011;10615;42.702;23.314;2023-03-14T04:01:22;22.25;;;15.63;;
20910;SDS011;10615;42.702;23.314;2023-03-14T04:02:23;29.17;;;17.10;;
20910;SDS011;10615;42.702;23.314;2023-03-14T04:03:23;26.95;;;16.10;;
20910;SDS011;10615;42.702;23.314;2023-03-14T04:04:25;28.35;;;16.90;;
20910;SDS011;10615;42.702;23.314;2023-03-14T04:05:26;24.73;;;16.98;;
20910;SDS011;10615;42.702;23.314;2023-03-14T04:06:27;27.15;;;16.15;;
20910;SDS011;10615;42.702;23.314;2023-03-14T04:07:27;26.30;;;15.45;;
20910;SDS011;10615;42.702;23.314;2023-03-14T04:08:28;23.95;;;15.32;;
20910;SDS011;10615;42.702;23.314;2023-03-14T04:09:29;24.98;;;16.55;;
20910;SDS011;10615;42.702;23.314;2023-03-14T04:10:33;27.42;;;15.68;;
20910;SDS011;10615;42.702;23.314;2023-03-14T04:11:35;24.17;;;15.38;;
20910;SDS011;10615;42.702;23.314;2023-03-14T04:12:35;23.60;;;15.98;;
20910;SDS011;10615;42.702;23.314;2023-03-14T04:13:36;25.08;;;15.50;;
20910;SDS011;10615;42.702;23.314;2023-03-14T04:14:37;22.60;;;15.48;;
20910;SDS011;10615;42.702;23.314;2023-03-14T04:15:37;28.58;;;15.32;;
20910;SDS011;10615;42.702;23.314;2023-03-14T04:16:38;22.55;;;14.90;;
20910;SDS011;10615;42.702;23.314;2023-03-14T04:17:38;26.95;;;15.70;;
20910;SDS011;10615;42.702;23.314;2023-03-14T04:18:39;25.33;;;14.95;;
20910;SDS011;10615;42.702;23.314;2023-03-14T04:19:40;25.40;;;15.18;;
20910;SDS011;10615;42.702;23.314;2023-03-14T04:20:42;29.80;;;15.52;;
20910;SDS011;10615;42.702;23.314;2023-03-14T04:21:42;27.65;;;14.73;;
20910;SDS011;10615;42.702;23.314;2023-03-14T04:22:46;24.60;;;15.30;;
20910;SDS011;10615;42.702;23.314;2023-03-14T04:23:47;24.92;;;14.85;;
20910;SDS011;10615;42.702;23.314;2023-03-14T04:24:48;24.17;;;14.45;;
20910;SDS011;10615;42.702;23.314;2023-03-14T04:25:48;30.25;;;15.18;;
20910;SDS011;10615;42.702;23.314;2023-03-14T04:26:50;25.13;;;15.32;;
20910;SDS011;10615;42.702;23.314;2023-03-14T04:27:51;25.02;;;15.20;;
20910;SDS011;10615;42.702;23.314;2023-03-14T04:28:51;22.10;;;15.15;;
20910;SDS011;10615;42.702;23.314;2023-03-14T04:29:52;24.88;;;15.57;;
20910;SDS011;10615;42.702;23.314;2023-03-14T04:30:53;21.50;;;14.70;;
20910;SDS011;10615;42.702;23.314;2023-03-14T04:31:53;20.67;;;13.85;;
20910;SDS011;10615;42.702;23.314;2023-03-14T04:32:54;22.20;;;14.60;;
20910;SDS011;10615;42.702;23.314;2023-03-14T04:33:55;21.90;;;15.15;;
20910;SDS011;10615;42.702;23.314;2023-03-14T04:34:55;25.80;;;14.63;;
20910;SDS011;10615;42.702;23.314;2023-03-14T04:35:56;21.58;;;13.82;;
20910;SDS011;10615;42.702;23.314;2023-03-14T04:36:57;20.02;;;13.38;;
20910;SDS011;10615;42.702;23.314;2023-03-14T04:37:57;23.50;;;14.55;;
20910;SDS011;10615;42.702;23.314;2023-03-14T04:38:59;19.48;;;13.45;;
20910;SDS011;10615;42.702;23.314;2023-03-14T04:39:59;21.42;;;14.27;;
20910;SDS011;10615;42.702;23.314;2023-03-14T04:41:00;19.23;;;14.07;;
20910;SDS011;10615;42.702;23.314;2023-03-14T04:42:01;23.80;;;14.73;;
20910;SDS011;10615;42.702;23.314;2023-03-14T04:43:02;20.75;;;14.27;;
20910;SDS011;10615;42.702;23.314;2023-03-14T04:44:03;23.17;;;14.15;;
20910;SDS011;10615;42.702;23.314;2023-03-14T04:45:04;24.02;;;14.00;;
20910;SDS011;10615;42.702;23.314;2023-03-14T04:46:05;23.35;;;14.77;;
20910;SDS011;10615;42.702;23.314;2023-03-14T04:47:06;22.20;;;14.52;;
20910;SDS011;10615;42.702;23.314;2023-03-14T04:48:07;22.17;;;13.70;;
20910;SDS011;10615;42.702;23.314;2023-03-14T04:49:08;24.17;;;14.05;;
20910;SDS011;10615;42.702;23.314;2023-03-14T04:50:08;25.17;;;14.48;;
20910;SDS011;10615;42.702;23.314;2023-03-14T04:51:10;24.42;;;14.60;;
20910;SDS011;10615;42.702;23.314;2023-03-14T04:52:10;25.70;;;14.85;;
20910;SDS011;10615;42.702;23.314;2023-03-14T04:53:11;23.27;;;14.95;;
20910;SDS011;10615;42.702;23.314;2023-03-14T04:54:12;24.63;;;14.63;;
20910;SDS011;10615;42.702;23.314;2023-03-14T04:55:13;25.48;;;15.60;;
20910;SDS011;10615;42.702;23.314;2023-03-14T04:56:13;25.08;;;15.35;;
20910;SDS011;10615;42.702;23.314;2023-03-14T04:57:14;24.25;;;14.77;;
20910;SDS011;10615;42.702;23.314;2023-03-14T04:58:14;21.73;;;14.32;;
20910;SDS011;10615;42.702;23.314;2023-03-14T04:59:15;19.73;;;13.45;;
20910;SDS011;10615;42.702;23.314;2023-03-14T05:00:16;21.65;;;13.35;;
20910;SDS011;10615;42.702;23.314;2023-03-14T05:01:20;25.80;;;13.63;;
20910;SDS011;10615;42.702;23.314;2023-03-14T05:02:20;22.60;;;13.90;;
20910;SDS011;10615;42.702;23.314;2023-03-14T05:03:21;23.05;;;13.32;;
20910;SDS011;10615;42.702;23.314;2023-03-14T05:04:22;23.75;;;13.45;;
20910;SDS011;10615;42.702;23.314;2023-03-14T05:05:22;24.90;;;14.38;;
20910;SDS011;10615;42.702;23.314;2023-03-14T05:06:23;29.98;;;14.07;;
20910;SDS011;10615;42.702;23.314;2023-03-14T05:07:24;22.50;;;16.10;;
20910;SDS011;10615;42.702;23.314;2023-03-14T05:08:25;23.52;;;14.98;;
20910;SDS011;10615;42.702;23.314;2023-03-14T05:09:25;22.83;;;14.65;;
20910;SDS011;10615;42.702;23.314;2023-03-14T05:10:26;23.17;;;14.73;;
20910;SDS011;10615;42.702;23.314;2023-03-14T05:11:27;23.58;;;14.80;;
20910;SDS011;10615;42.702;23.314;2023-03-14T05:12:29;25.58;;;14.63;;
20910;SDS011;10615;42.702;23.314;2023-03-14T05:13:30;25.08;;;15.07;;
20910;SDS011;10615;42.702;23.314;2023-03-14T05:14:33;28.90;;;16.10;;
20910;SDS011;10615;42.702;23.314;2023-03-14T05:15:34;24.65;;;17.83;;
20910;SDS011;10615;42.702;23.314;2023-03-14T05:16:35;31.48;;;19.13;;
20910;SDS011;10615;42.702;23.314;2023-03-14T05:17:35;29.63;;;17.83;;
20910;SDS011;10615;42.702;23.314;2023-03-14T05:18:36;28.05;;;16.60;;
20910;SDS011;10615;42.702;23.314;2023-03-14T05:19:37;25.98;;;16.48;;
20910;SDS011;10615;42.702;23.314;2023-03-14T05:20:38;21.25;;;16.02;;
20910;SDS011;10615;42.702;23.314;2023-03-14T05:21:39;22.83;;;15.15;;
20910;SDS011;10615;42.702;23.314;2023-03-14T05:22:39;19.73;;;13.77;;
20910;SDS011;10615;42.702;23.314;2023-03-14T05:23:40;19.30;;;13.20;;
20910;SDS011;10615;42.702;23.314;2023-03-14T05:24:41;21.90;;;13.35;;
20910;SDS011;10615;42.702;23.314;2023-03-14T05:25:42;21.05;;;13.93;;
20910;SDS011;10615;42.702;23.314;2023-03-14T05:26:44;22.00;;;14.15;;
20910;SDS011;10615;42.702;23.314;2023-03-14T05:27:45;21.05;;;14.35;;
20910;SDS011;10615;42.702;23.314;2023-03-14T05:28:45;21.65;;;15.52;;
20910;SDS011;10615;42.702;23.314;2023-03-14T05:29:47;23.05;;;14.40;;
20910;SDS011;10615;42.702;23.314;2023-03-14T05:30:48;23.70;;;14.32;;
20910;SDS011;10615;42.702;23.314;2023-03-14T05:31:49;20.08;;;14.15;;
20910;SDS011;10615;42.702;23.314;2023-03-14T05:32:49;22.80;;;13.73;;
20910;SDS011;10615;42.702;23.314;2023-03-14T05:33:50;22.63;;;15.27;;
20910;SDS011;10615;42.702;23.314;2023-03-14T05:34:51;24.27;;;14.45;;
20910;SDS011;10615;42.702;23.314;2023-03-14T05:35:51;25.23;;;14.20;;
20910;SDS011;10615;42.702;23.314;2023-03-14T05:36:52;23.63;;;14.10;;
20910;SDS011;10615;42.702;23.314;2023-03-14T05:37:53;17.88;;;13.00;;
20910;SDS011;10615;42.702;23.314;2023-03-14T05:38:53;22.50;;;13.23;;
20910;SDS011;10615;42.702;23.314;2023-03-14T05:39:54;20.42;;;12.60;;
20910;SDS011;10615;42.702;23.314;2023-03-14T05:40:54;23.95;;;12.15;;
20910;SDS011;10615;42.702;23.314;2023-03-14T05:41:55;19.98;;;12.25;;
20910;SDS011;10615;42.702;23.314;2023-03-14T05:42:56;27.63;;;12.95;;
20910;SDS011;10615;42.702;23.314;2023-03-14T05:43:56;16.77;;;13.20;;
20910;SDS011;10615;42.702;23.314;2023-03-14T05:44:57;17.35;;;13.10;;
20910;SDS011;10615;42.702;23.314;2023-03-14T05:45:58;20.92;;;12.60;;
20910;SDS011;10615;42.702;23.314;2023-03-14T05:46:58;15.63;;;12.25;;
20910;SDS011;10615;42.702;23.314;2023-03-14T05:47:59;20.88;;;11.65;;
20910;SDS011;10615;42.702;23.314;2023-03-14T05:49:00;16.75;;;12.75;;
20910;SDS011;10615;42.702;23.314;2023-03-14T05:50:00;23.50;;;13.30;;
20910;SDS011;10615;42.702;23.314;2023-03-14T05:51:01;20.75;;;12.30;;
20910;SDS011;10615;42.702;23.314;2023-03-14T05:52:02;18.67;;;12.90;;
20910;SDS011;10615;42.702;23.314;2023-03-14T05:53:03;21.40;;;13.02;;
20910;SDS011;10615;42.702;23.314;2023-03-14T05:54:03;21.65;;;13.15;;
20910;SDS011;10615;42.702;23.314;2023-03-14T05:55:04;22.65;;;13.98;;
20910;SDS011;10615;42.702;23.314;2023-03-14T05:56:05;21.60;;;12.98;;
20910;SDS011;10615;42.702;23.314;2023-03-14T05:57:06;23.00;;;13.75;;
20910;SDS011;10615;42.702;23.314;2023-03-14T05:58:07;18.38;;;13.00;;
20910;SDS011;10615;42.702;23.314;2023-03-14T05:59:08;17.92;;;12.57;;
20910;SDS011;10615;42.702;23.314;2023-03-14T06:00:10;18.65;;;13.05;;
20910;SDS011;10615;42.702;23.314;2023-03-14T06:01:11;17.60;;;13.13;;
20910;SDS011;10615;42.702;23.314;2023-03-14T06:02:11;17.27;;;13.30;;
20910;SDS011;10615;42.702;23.314;2023-03-14T06:03:12;19.65;;;13.95;;
20910;SDS011;10615;42.702;23.314;2023-03-14T06:04:13;20.60;;;12.82;;
20910;SDS011;10615;42.702;23.314;2023-03-14T06:05:14;22.30;;;13.13;;
20910;SDS011;10615;42.702;23.314;2023-03-14T06:06:14;20.23;;;13.48;;
20910;SDS011;10615;42.702;23.314;2023-03-14T06:07:16;19.60;;;13.15;;